Walnut, Iowa
Current Conditions -  °F | °C
As of 4:35 AM on Sunday 21 Dec 2014 (Local Time) from KHNR Reporting Station
Haze Haze  
Wind Chill: -2°   Ceiling: 600
Heat Index:   Visibility: 4mi
Dew Point:   Wind: 14mph
Humidity: 100%   Direction: 180°S
Pressure: 29.96"   Gusts: NA
Location:  41.48°N, 95.22°W
Report Text: KHNR 211035Z AUTO 18012KT 4SM BR OVC006 03/03 A2996 RMK AO2
Loading
Personal Weather Stations






























Interactive Weather Map New forecast layout! Learn more

10-Day Weather Forecast

Advertisements
Track Severe Weather on mobile